sensor_id;sensor_type;location;lat;lon;timestamp;temperature;humidity
22544;DHT22;11438;52.044;8.716;2022-10-16T00:00:35;18.20;95.70
22544;DHT22;11438;52.044;8.716;2022-10-16T00:03:01;18.20;95.70
22544;DHT22;11438;52.044;8.716;2022-10-16T00:05:27;18.20;95.70
22544;DHT22;11438;52.044;8.716;2022-10-16T00:07:53;18.10;95.70
22544;DHT22;11438;52.044;8.716;2022-10-16T00:10:18;18.20;95.70
22544;DHT22;11438;52.044;8.716;2022-10-16T00:12:44;18.10;95.70
22544;DHT22;11438;52.044;8.716;2022-10-16T00:15:10;18.10;95.70
22544;DHT22;11438;52.044;8.716;2022-10-16T00:17:35;18.10;95.70
22544;DHT22;11438;52.044;8.716;2022-10-16T00:20:01;18.10;95.70
22544;DHT22;11438;52.044;8.716;2022-10-16T00:22:26;18.10;95.70
22544;DHT22;11438;52.044;8.716;2022-10-16T00:24:52;18.10;95.70
22544;DHT22;11438;52.044;8.716;2022-10-16T00:27:18;18.10;95.80
22544;DHT22;11438;52.044;8.716;2022-10-16T00:29:43;18.10;95.80
22544;DHT22;11438;52.044;8.716;2022-10-16T00:32:09;18.00;95.80
22544;DHT22;11438;52.044;8.716;2022-10-16T00:34:34;18.00;95.80
22544;DHT22;11438;52.044;8.716;2022-10-16T00:37:00;18.10;95.80
22544;DHT22;11438;52.044;8.716;2022-10-16T00:39:26;18.00;95.80
22544;DHT22;11438;52.044;8.716;2022-10-16T00:41:51;18.00;95.80
22544;DHT22;11438;52.044;8.716;2022-10-16T00:47:34;18.00;95.90
22544;DHT22;11438;52.044;8.716;2022-10-16T00:50:09;18.00;95.80
22544;DHT22;11438;52.044;8.716;2022-10-16T00:52:37;17.90;95.80
22544;DHT22;11438;52.044;8.716;2022-10-16T00:55:06;17.90;95.80
22544;DHT22;11438;52.044;8.716;2022-10-16T00:57:32;17.90;95.80
22544;DHT22;11438;52.044;8.716;2022-10-16T00:59:57;17.90;95.90
22544;DHT22;11438;52.044;8.716;2022-10-16T01:02:24;17.90;95.80
22544;DHT22;11438;52.044;8.716;2022-10-16T01:04:51;17.90;95.90
22544;DHT22;11438;52.044;8.716;2022-10-16T01:07:33;17.80;95.90
22544;DHT22;11438;52.044;8.716;2022-10-16T01:10:13;17.80;95.90
22544;DHT22;11438;52.044;8.716;2022-10-16T01:15:11;17.80;95.90
22544;DHT22;11438;52.044;8.716;2022-10-16T01:22:59;17.70;96.00
22544;DHT22;11438;52.044;8.716;2022-10-16T01:28:19;17.70;96.00
22544;DHT22;11438;52.044;8.716;2022-10-16T01:30:47;17.70;96.00
22544;DHT22;11438;52.044;8.716;2022-10-16T01:33:21;17.70;96.10
22544;DHT22;11438;52.044;8.716;2022-10-16T01:35:52;17.70;96.10
22544;DHT22;11438;52.044;8.716;2022-10-16T01:38:24;17.60;96.10
22544;DHT22;11438;52.044;8.716;2022-10-16T01:40:56;17.60;96.10
22544;DHT22;11438;52.044;8.716;2022-10-16T01:43:45;17.70;96.20
22544;DHT22;11438;52.044;8.716;2022-10-16T01:46:13;17.60;96.20
22544;DHT22;11438;52.044;8.716;2022-10-16T01:48:41;17.60;96.10
22544;DHT22;11438;52.044;8.716;2022-10-16T01:51:10;17.60;96.50
22544;DHT22;11438;52.044;8.716;2022-10-16T01:53:37;17.60;96.10
22544;DHT22;11438;52.044;8.716;2022-10-16T01:56:08;17.50;96.10
22544;DHT22;11438;52.044;8.716;2022-10-16T01:58:42;17.60;96.20
22544;DHT22;11438;52.044;8.716;2022-10-16T02:01:11;17.50;96.20
22544;DHT22;11438;52.044;8.716;2022-10-16T02:03:40;17.50;96.20
22544;DHT22;11438;52.044;8.716;2022-10-16T02:06:07;17.50;96.20
22544;DHT22;11438;52.044;8.716;2022-10-16T02:08:33;17.40;96.20
22544;DHT22;11438;52.044;8.716;2022-10-16T02:11:00;17.40;96.20
22544;DHT22;11438;52.044;8.716;2022-10-16T02:13:48;17.50;96.20
22544;DHT22;11438;52.044;8.716;2022-10-16T02:16:16;17.40;96.30
22544;DHT22;11438;52.044;8.716;2022-10-16T02:18:42;17.40;96.30
22544;DHT22;11438;52.044;8.716;2022-10-16T02:21:28;17.40;96.30
22544;DHT22;11438;52.044;8.716;2022-10-16T02:24:03;17.40;96.40
22544;DHT22;11438;52.044;8.716;2022-10-16T02:29:44;17.40;96.40
22544;DHT22;11438;52.044;8.716;2022-10-16T02:32:16;17.30;96.40
22544;DHT22;11438;52.044;8.716;2022-10-16T02:34:44;17.40;96.50
22544;DHT22;11438;52.044;8.716;2022-10-16T02:37:10;17.30;96.40
22544;DHT22;11438;52.044;8.716;2022-10-16T02:39:37;17.30;96.50
22544;DHT22;11438;52.044;8.716;2022-10-16T02:42:03;17.30;96.50
22544;DHT22;11438;52.044;8.716;2022-10-16T02:44:29;17.30;96.50
22544;DHT22;11438;52.044;8.716;2022-10-16T02:46:55;17.30;96.50
22544;DHT22;11438;52.044;8.716;2022-10-16T02:49:20;17.20;96.60
22544;DHT22;11438;52.044;8.716;2022-10-16T02:51:46;17.20;96.60
22544;DHT22;11438;52.044;8.716;2022-10-16T02:54:11;17.20;96.60
22544;DHT22;11438;52.044;8.716;2022-10-16T02:56:38;17.20;96.70
22544;DHT22;11438;52.044;8.716;2022-10-16T02:59:04;17.20;96.80
22544;DHT22;11438;52.044;8.716;2022-10-16T03:01:29;17.10;96.80
22544;DHT22;11438;52.044;8.716;2022-10-16T03:03:55;17.20;96.80
22544;DHT22;11438;52.044;8.716;2022-10-16T03:06:21;17.20;96.80
22544;DHT22;11438;52.044;8.716;2022-10-16T03:08:46;17.20;96.90
22544;DHT22;11438;52.044;8.716;2022-10-16T03:11:12;17.10;96.90
22544;DHT22;11438;52.044;8.716;2022-10-16T03:13:37;17.10;96.90
22544;DHT22;11438;52.044;8.716;2022-10-16T03:16:03;17.10;96.80
22544;DHT22;11438;52.044;8.716;2022-10-16T03:18:29;17.10;96.90
22544;DHT22;11438;52.044;8.716;2022-10-16T03:20:54;17.10;96.90
22544;DHT22;11438;52.044;8.716;2022-10-16T03:23:20;17.10;97.00
22544;DHT22;11438;52.044;8.716;2022-10-16T03:25:45;17.20;97.00
22544;DHT22;11438;52.044;8.716;2022-10-16T03:28:11;17.10;97.00
22544;DHT22;11438;52.044;8.716;2022-10-16T03:30:36;17.10;97.00
22544;DHT22;11438;52.044;8.716;2022-10-16T03:33:02;17.20;97.00
22544;DHT22;11438;52.044;8.716;2022-10-16T03:35:28;17.20;97.00
22544;DHT22;11438;52.044;8.716;2022-10-16T03:37:53;17.20;97.00
22544;DHT22;11438;52.044;8.716;2022-10-16T03:40:19;17.20;97.00
22544;DHT22;11438;52.044;8.716;2022-10-16T03:42:45;17.20;97.00
22544;DHT22;11438;52.044;8.716;2022-10-16T03:45:11;17.20;96.90
22544;DHT22;11438;52.044;8.716;2022-10-16T03:47:37;17.20;96.90
22544;DHT22;11438;52.044;8.716;2022-10-16T03:50:03;17.20;97.00
22544;DHT22;11438;52.044;8.716;2022-10-16T03:52:29;17.20;97.00
22544;DHT22;11438;52.044;8.716;2022-10-16T03:54:55;17.20;97.00
22544;DHT22;11438;52.044;8.716;2022-10-16T03:57:21;17.20;97.00
22544;DHT22;11438;52.044;8.716;2022-10-16T03:59:46;17.20;97.00
22544;DHT22;11438;52.044;8.716;2022-10-16T04:02:12;17.20;97.00
22544;DHT22;11438;52.044;8.716;2022-10-16T04:04:38;17.10;97.00
22544;DHT22;11438;52.044;8.716;2022-10-16T04:07:04;17.10;97.00
22544;DHT22;11438;52.044;8.716;2022-10-16T04:09:30;17.10;97.00
22544;DHT22;11438;52.044;8.716;2022-10-16T04:11:55;17.20;97.10
22544;DHT22;11438;52.044;8.716;2022-10-16T04:14:21;17.20;97.10
22544;DHT22;11438;52.044;8.716;2022-10-16T04:16:47;17.20;97.10
22544;DHT22;11438;52.044;8.716;2022-10-16T04:19:12;17.20;97.10
22544;DHT22;11438;52.044;8.716;2022-10-16T04:21:38;17.20;97.10
22544;DHT22;11438;52.044;8.716;2022-10-16T04:24:04;17.20;97.10
22544;DHT22;11438;52.044;8.716;2022-10-16T04:26:29;17.20;97.10
22544;DHT22;11438;52.044;8.716;2022-10-16T04:28:55;17.20;97.10
22544;DHT22;11438;52.044;8.716;2022-10-16T04:31:21;17.20;97.10
22544;DHT22;11438;52.044;8.716;2022-10-16T04:33:47;17.20;97.10
22544;DHT22;11438;52.044;8.716;2022-10-16T04:36:13;17.20;97.10
22544;DHT22;11438;52.044;8.716;2022-10-16T04:38:39;17.20;97.20
22544;DHT22;11438;52.044;8.716;2022-10-16T04:41:05;17.30;97.20
22544;DHT22;11438;52.044;8.716;2022-10-16T04:43:32;17.30;97.20
22544;DHT22;11438;52.044;8.716;2022-10-16T04:45:58;17.30;97.30
22544;DHT22;11438;52.044;8.716;2022-10-16T04:48:23;17.30;97.30
22544;DHT22;11438;52.044;8.716;2022-10-16T04:50:49;17.30;97.30
22544;DHT22;11438;52.044;8.716;2022-10-16T04:53:14;17.30;97.30
22544;DHT22;11438;52.044;8.716;2022-10-16T04:55:41;17.30;97.70
22544;DHT22;11438;52.044;8.716;2022-10-16T04:58:07;17.30;97.30
22544;DHT22;11438;52.044;8.716;2022-10-16T05:00:33;17.40;97.30
22544;DHT22;11438;52.044;8.716;2022-10-16T05:02:59;17.40;97.30
22544;DHT22;11438;52.044;8.716;2022-10-16T05:05:26;17.40;97.20
22544;DHT22;11438;52.044;8.716;2022-10-16T05:07:52;17.40;97.20
22544;DHT22;11438;52.044;8.716;2022-10-16T05:10:17;17.50;97.20
22544;DHT22;11438;52.044;8.716;2022-10-16T05:12:43;17.50;97.10
22544;DHT22;11438;52.044;8.716;2022-10-16T05:15:09;17.50;97.10
22544;DHT22;11438;52.044;8.716;2022-10-16T05:17:35;17.50;97.10
22544;DHT22;11438;52.044;8.716;2022-10-16T05:20:00;17.50;97.00
22544;DHT22;11438;52.044;8.716;2022-10-16T05:22:26;17.60;97.00
22544;DHT22;11438;52.044;8.716;2022-10-16T05:24:51;17.60;97.00
22544;DHT22;11438;52.044;8.716;2022-10-16T05:27:17;17.60;96.90
22544;DHT22;11438;52.044;8.716;2022-10-16T05:29:46;17.60;96.90
22544;DHT22;11438;52.044;8.716;2022-10-16T05:32:13;17.60;96.90
22544;DHT22;11438;52.044;8.716;2022-10-16T05:34:38;17.60;96.80
22544;DHT22;11438;52.044;8.716;2022-10-16T05:37:04;17.60;96.80
22544;DHT22;11438;52.044;8.716;2022-10-16T05:39:29;17.60;96.70
22544;DHT22;11438;52.044;8.716;2022-10-16T05:41:55;17.60;96.70
22544;DHT22;11438;52.044;8.716;2022-10-16T05:44:20;17.60;96.60
22544;DHT22;11438;52.044;8.716;2022-10-16T05:46:46;17.60;96.60
22544;DHT22;11438;52.044;8.716;2022-10-16T05:49:12;17.60;96.50
22544;DHT22;11438;52.044;8.716;2022-10-16T05:51:37;17.60;96.50
22544;DHT22;11438;52.044;8.716;2022-10-16T05:54:03;17.60;96.50
22544;DHT22;11438;52.044;8.716;2022-10-16T05:56:29;17.50;96.40
22544;DHT22;11438;52.044;8.716;2022-10-16T05:58:54;17.50;96.40
22544;DHT22;11438;52.044;8.716;2022-10-16T06:01:20;17.50;96.40
22544;DHT22;11438;52.044;8.716;2022-10-16T06:03:52;17.50;96.80
22544;DHT22;11438;52.044;8.716;2022-10-16T06:06:20;17.50;96.40
22544;DHT22;11438;52.044;8.716;2022-10-16T06:08:47;17.40;96.40
22544;DHT22;11438;52.044;8.716;2022-10-16T06:11:19;17.40;96.40
22544;DHT22;11438;52.044;8.716;2022-10-16T06:13:48;17.40;96.40
22544;DHT22;11438;52.044;8.716;2022-10-16T06:16:14;17.40;96.40
22544;DHT22;11438;52.044;8.716;2022-10-16T06:18:40;17.40;96.50
22544;DHT22;11438;52.044;8.716;2022-10-16T06:21:16;17.40;96.50
22544;DHT22;11438;52.044;8.716;2022-10-16T06:23:43;17.40;96.50
22544;DHT22;11438;52.044;8.716;2022-10-16T06:26:11;17.40;96.50
22544;DHT22;11438;52.044;8.716;2022-10-16T06:28:37;17.40;96.60
22544;DHT22;11438;52.044;8.716;2022-10-16T06:31:05;17.40;96.60
22544;DHT22;11438;52.044;8.716;2022-10-16T06:33:30;17.40;96.60
22544;DHT22;11438;52.044;8.716;2022-10-16T06:36:10;17.40;96.70
22544;DHT22;11438;52.044;8.716;2022-10-16T06:38:36;17.40;96.70
22544;DHT22;11438;52.044;8.716;2022-10-16T06:41:03;17.40;96.70
22544;DHT22;11438;52.044;8.716;2022-10-16T06:43:30;17.40;96.70
22544;DHT22;11438;52.044;8.716;2022-10-16T06:46:01;17.50;96.70
22544;DHT22;11438;52.044;8.716;2022-10-16T06:48:27;17.50;96.80
22544;DHT22;11438;52.044;8.716;2022-10-16T06:51:01;17.50;96.80
22544;DHT22;11438;52.044;8.716;2022-10-16T06:53:29;17.50;96.70
22544;DHT22;11438;52.044;8.716;2022-10-16T06:55:55;17.50;96.70
22544;DHT22;11438;52.044;8.716;2022-10-16T06:58:21;17.50;96.70
22544;DHT22;11438;52.044;8.716;2022-10-16T07:00:46;17.60;96.70
22544;DHT22;11438;52.044;8.716;2022-10-16T07:03:12;17.60;96.70
22544;DHT22;11438;52.044;8.716;2022-10-16T07:05:39;17.60;96.70
22544;DHT22;11438;52.044;8.716;2022-10-16T07:08:05;17.60;96.70
22544;DHT22;11438;52.044;8.716;2022-10-16T07:10:32;17.60;96.70
22544;DHT22;11438;52.044;8.716;2022-10-16T07:12:57;17.60;96.80
22544;DHT22;11438;52.044;8.716;2022-10-16T07:15:24;17.70;96.80
22544;DHT22;11438;52.044;8.716;2022-10-16T07:17:50;17.70;96.80
22544;DHT22;11438;52.044;8.716;2022-10-16T07:20:15;17.70;96.70
22544;DHT22;11438;52.044;8.716;2022-10-16T07:22:41;17.70;96.70
22544;DHT22;11438;52.044;8.716;2022-10-16T07:25:07;17.80;96.80
22544;DHT22;11438;52.044;8.716;2022-10-16T07:27:33;17.80;96.70
22544;DHT22;11438;52.044;8.716;2022-10-16T07:29:58;17.80;96.70
22544;DHT22;11438;52.044;8.716;2022-10-16T07:32:24;17.90;96.80
22544;DHT22;11438;52.044;8.716;2022-10-16T07:34:51;17.90;96.70
22544;DHT22;11438;52.044;8.716;2022-10-16T07:37:17;18.00;96.70
22544;DHT22;11438;52.044;8.716;2022-10-16T07:39:42;18.00;96.60
22544;DHT22;11438;52.044;8.716;2022-10-16T07:42:08;18.00;96.60
22544;DHT22;11438;52.044;8.716;2022-10-16T07:44:33;18.10;96.60
22544;DHT22;11438;52.044;8.716;2022-10-16T07:46:59;18.10;96.60
22544;DHT22;11438;52.044;8.716;2022-10-16T07:49:25;18.10;96.60
22544;DHT22;11438;52.044;8.716;2022-10-16T07:51:51;18.10;96.60
22544;DHT22;11438;52.044;8.716;2022-10-16T07:54:16;18.20;96.50
22544;DHT22;11438;52.044;8.716;2022-10-16T07:56:42;18.20;96.40
22544;DHT22;11438;52.044;8.716;2022-10-16T07:59:07;18.20;96.30
22544;DHT22;11438;52.044;8.716;2022-10-16T08:01:33;18.30;96.30
22544;DHT22;11438;52.044;8.716;2022-10-16T08:03:58;18.20;96.20
22544;DHT22;11438;52.044;8.716;2022-10-16T08:06:24;18.20;96.60
22544;DHT22;11438;52.044;8.716;2022-10-16T08:08:49;18.20;96.20
22544;DHT22;11438;52.044;8.716;2022-10-16T08:11:15;18.20;96.20
22544;DHT22;11438;52.044;8.716;2022-10-16T08:13:41;18.20;96.30
22544;DHT22;11438;52.044;8.716;2022-10-16T08:16:07;18.20;96.30
22544;DHT22;11438;52.044;8.716;2022-10-16T08:18:42;18.20;96.40
22544;DHT22;11438;52.044;8.716;2022-10-16T08:21:13;18.20;96.80
22544;DHT22;11438;52.044;8.716;2022-10-16T08:23:39;18.20;96.50
22544;DHT22;11438;52.044;8.716;2022-10-16T08:26:06;18.20;96.50
22544;DHT22;11438;52.044;8.716;2022-10-16T08:28:33;18.20;96.60
22544;DHT22;11438;52.044;8.716;2022-10-16T08:31:13;18.20;96.60
22544;DHT22;11438;52.044;8.716;2022-10-16T08:33:41;18.30;96.70
22544;DHT22;11438;52.044;8.716;2022-10-16T08:36:07;18.30;96.70
22544;DHT22;11438;52.044;8.716;2022-10-16T08:38:34;18.30;96.60
22544;DHT22;11438;52.044;8.716;2022-10-16T08:41:27;18.30;96.60
22544;DHT22;11438;52.044;8.716;2022-10-16T08:52:18;18.50;96.40
22544;DHT22;11438;52.044;8.716;2022-10-16T08:54:47;18.50;96.20
22544;DHT22;11438;52.044;8.716;2022-10-16T08:57:19;18.60;96.30
22544;DHT22;11438;52.044;8.716;2022-10-16T08:59:45;18.70;96.40
22544;DHT22;11438;52.044;8.716;2022-10-16T09:02:45;18.70;96.40
22544;DHT22;11438;52.044;8.716;2022-10-16T09:10:57;18.80;96.00
22544;DHT22;11438;52.044;8.716;2022-10-16T09:16:22;18.90;95.80
22544;DHT22;11438;52.044;8.716;2022-10-16T09:21:37;18.90;96.00
22544;DHT22;11438;52.044;8.716;2022-10-16T09:24:30;19.00;95.90
22544;DHT22;11438;52.044;8.716;2022-10-16T09:26:56;19.00;96.00
22544;DHT22;11438;52.044;8.716;2022-10-16T09:29:21;19.10;95.80
22544;DHT22;11438;52.044;8.716;2022-10-16T09:31:50;19.10;95.50
22544;DHT22;11438;52.044;8.716;2022-10-16T09:34:39;19.20;95.60
22544;DHT22;11438;52.044;8.716;2022-10-16T09:37:11;19.20;95.60
22544;DHT22;11438;52.044;8.716;2022-10-16T09:39:49;19.30;95.50
22544;DHT22;11438;52.044;8.716;2022-10-16T09:42:20;19.30;95.10
22544;DHT22;11438;52.044;8.716;2022-10-16T09:44:49;19.40;94.90
22544;DHT22;11438;52.044;8.716;2022-10-16T09:47:20;19.50;95.20
22544;DHT22;11438;52.044;8.716;2022-10-16T09:49:59;19.50;95.10
22544;DHT22;11438;52.044;8.716;2022-10-16T09:52:28;19.60;94.90
22544;DHT22;11438;52.044;8.716;2022-10-16T09:54:55;19.70;94.60
22544;DHT22;11438;52.044;8.716;2022-10-16T09:57:22;19.70;94.50
22544;DHT22;11438;52.044;8.716;2022-10-16T09:59:52;19.80;94.50
22544;DHT22;11438;52.044;8.716;2022-10-16T10:02:34;19.80;94.10
22544;DHT22;11438;52.044;8.716;2022-10-16T10:05:01;19.90;94.10
22544;DHT22;11438;52.044;8.716;2022-10-16T10:07:35;19.90;93.60
22544;DHT22;11438;52.044;8.716;2022-10-16T10:10:05;19.90;93.30
22544;DHT22;11438;52.044;8.716;2022-10-16T10:12:32;19.90;93.10
22544;DHT22;11438;52.044;8.716;2022-10-16T10:15:13;19.90;93.40
22544;DHT22;11438;52.044;8.716;2022-10-16T10:17:50;19.90;93.40
22544;DHT22;11438;52.044;8.716;2022-10-16T10:22:51;20.00;92.50
22544;DHT22;11438;52.044;8.716;2022-10-16T10:33:49;20.20;92.20
22544;DHT22;11438;52.044;8.716;2022-10-16T10:39:15;20.30;92.20
22544;DHT22;11438;52.044;8.716;2022-10-16T10:42:36;20.40;92.50
22544;DHT22;11438;52.044;8.716;2022-10-16T10:45:18;20.40;92.30
22544;DHT22;11438;52.044;8.716;2022-10-16T10:47:54;20.50;92.30
22544;DHT22;11438;52.044;8.716;2022-10-16T10:53:21;20.60;91.50
22544;DHT22;11438;52.044;8.716;2022-10-16T11:02:00;20.70;90.70
22544;DHT22;11438;52.044;8.716;2022-10-16T11:07:20;20.80;90.50
22544;DHT22;11438;52.044;8.716;2022-10-16T11:10:04;20.80;90.70
22544;DHT22;11438;52.044;8.716;2022-10-16T11:12:34;20.80;90.00
22544;DHT22;11438;52.044;8.716;2022-10-16T11:15:35;20.90;90.00
22544;DHT22;11438;52.044;8.716;2022-10-16T11:18:08;20.90;90.30
22544;DHT22;11438;52.044;8.716;2022-10-16T11:20:50;20.90;90.30
22544;DHT22;11438;52.044;8.716;2022-10-16T11:23:51;20.90;90.00
22544;DHT22;11438;52.044;8.716;2022-10-16T11:26:26;20.90;90.20
22544;DHT22;11438;52.044;8.716;2022-10-16T11:28:54;20.90;90.20
22544;DHT22;11438;52.044;8.716;2022-10-16T11:31:40;21.00;90.60
22544;DHT22;11438;52.044;8.716;2022-10-16T11:34:12;21.00;89.70
22544;DHT22;11438;52.044;8.716;2022-10-16T11:39:28;21.10;89.50
22544;DHT22;11438;52.044;8.716;2022-10-16T11:42:04;21.10;89.20
22544;DHT22;11438;52.044;8.716;2022-10-16T11:44:51;21.10;89.00
22544;DHT22;11438;52.044;8.716;2022-10-16T11:47:33;21.10;88.80
22544;DHT22;11438;52.044;8.716;2022-10-16T11:50:26;21.10;88.20
22544;DHT22;11438;52.044;8.716;2022-10-16T11:55:34;21.20;88.90
22544;DHT22;11438;52.044;8.716;2022-10-16T12:00:53;21.20;87.70
22544;DHT22;11438;52.044;8.716;2022-10-16T12:06:37;21.20;87.50
22544;DHT22;11438;52.044;8.716;2022-10-16T12:09:05;21.30;87.30
22544;DHT22;11438;52.044;8.716;2022-10-16T12:11:37;21.30;87.00
22544;DHT22;11438;52.044;8.716;2022-10-16T12:17:00;21.30;87.30
22544;DHT22;11438;52.044;8.716;2022-10-16T12:19:29;21.40;86.60
22544;DHT22;11438;52.044;8.716;2022-10-16T12:21:57;21.40;86.30
22544;DHT22;11438;52.044;8.716;2022-10-16T12:26:54;21.40;87.60
22544;DHT22;11438;52.044;8.716;2022-10-16T12:29:37;21.40;87.80
22544;DHT22;11438;52.044;8.716;2022-10-16T12:32:18;21.40;87.70
22544;DHT22;11438;52.044;8.716;2022-10-16T12:34:47;21.50;87.00
22544;DHT22;11438;52.044;8.716;2022-10-16T12:37:25;21.50;87.10
22544;DHT22;11438;52.044;8.716;2022-10-16T12:39:53;21.50;85.40
22544;DHT22;11438;52.044;8.716;2022-10-16T12:44:55;21.50;85.70
22544;DHT22;11438;52.044;8.716;2022-10-16T12:49:53;21.50;85.70
22544;DHT22;11438;52.044;8.716;2022-10-16T12:52:34;21.40;85.00
22544;DHT22;11438;52.044;8.716;2022-10-16T12:55:00;21.40;84.50
22544;DHT22;11438;52.044;8.716;2022-10-16T13:00:32;21.30;86.20
22544;DHT22;11438;52.044;8.716;2022-10-16T13:03:10;21.30;85.80
22544;DHT22;11438;52.044;8.716;2022-10-16T13:06:19;21.40;86.60
22544;DHT22;11438;52.044;8.716;2022-10-16T13:09:07;21.30;85.10
22544;DHT22;11438;52.044;8.716;2022-10-16T13:17:23;21.30;83.60
22544;DHT22;11438;52.044;8.716;2022-10-16T13:20:35;21.30;83.90
22544;DHT22;11438;52.044;8.716;2022-10-16T13:23:17;21.30;85.60
22544;DHT22;11438;52.044;8.716;2022-10-16T13:28:11;21.40;85.60
22544;DHT22;11438;52.044;8.716;2022-10-16T13:30:41;21.30;84.60
22544;DHT22;11438;52.044;8.716;2022-10-16T13:35:50;21.40;84.90
22544;DHT22;11438;52.044;8.716;2022-10-16T13:38:25;21.40;84.70
22544;DHT22;11438;52.044;8.716;2022-10-16T13:40:59;21.40;84.60
22544;DHT22;11438;52.044;8.716;2022-10-16T13:43:41;21.40;85.40
22544;DHT22;11438;52.044;8.716;2022-10-16T13:46:21;21.40;85.70
22544;DHT22;11438;52.044;8.716;2022-10-16T13:49:13;21.40;85.90
22544;DHT22;11438;52.044;8.716;2022-10-16T13:51:39;21.50;86.50
22544;DHT22;11438;52.044;8.716;2022-10-16T13:54:05;21.50;85.30
22544;DHT22;11438;52.044;8.716;2022-10-16T13:56:32;21.50;85.70
22544;DHT22;11438;52.044;8.716;2022-10-16T13:59:33;21.60;85.40
22544;DHT22;11438;52.044;8.716;2022-10-16T14:02:00;21.50;85.00
22544;DHT22;11438;52.044;8.716;2022-10-16T14:04:32;21.60;84.00
22544;DHT22;11438;52.044;8.716;2022-10-16T14:06:58;21.50;84.20
22544;DHT22;11438;52.044;8.716;2022-10-16T14:09:26;21.50;84.70
22544;DHT22;11438;52.044;8.716;2022-10-16T14:12:02;21.50;84.40
22544;DHT22;11438;52.044;8.716;2022-10-16T14:14:35;21.50;84.30
22544;DHT22;11438;52.044;8.716;2022-10-16T14:17:05;21.50;85.10
22544;DHT22;11438;52.044;8.716;2022-10-16T14:19:31;21.50;85.60
22544;DHT22;11438;52.044;8.716;2022-10-16T14:21:58;21.40;85.30
22544;DHT22;11438;52.044;8.716;2022-10-16T14:24:34;21.40;85.10
22544;DHT22;11438;52.044;8.716;2022-10-16T14:27:00;21.40;85.00
22544;DHT22;11438;52.044;8.716;2022-10-16T14:29:28;21.40;85.30
22544;DHT22;11438;52.044;8.716;2022-10-16T14:32:02;21.50;85.20
22544;DHT22;11438;52.044;8.716;2022-10-16T14:34:33;21.50;85.20
22544;DHT22;11438;52.044;8.716;2022-10-16T14:37:22;21.50;85.80
22544;DHT22;11438;52.044;8.716;2022-10-16T14:39:52;21.50;85.50
22544;DHT22;11438;52.044;8.716;2022-10-16T14:42:19;21.50;85.60
22544;DHT22;11438;52.044;8.716;2022-10-16T14:44:46;21.60;85.70
22544;DHT22;11438;52.044;8.716;2022-10-16T14:47:19;21.50;85.60
22544;DHT22;11438;52.044;8.716;2022-10-16T14:49:51;21.50;84.70
22544;DHT22;11438;52.044;8.716;2022-10-16T14:52:17;21.60;85.70
22544;DHT22;11438;52.044;8.716;2022-10-16T14:54:42;21.50;85.60
22544;DHT22;11438;52.044;8.716;2022-10-16T14:57:24;21.50;85.70
22544;DHT22;11438;52.044;8.716;2022-10-16T14:59:51;21.50;86.10
22544;DHT22;11438;52.044;8.716;2022-10-16T15:04:46;21.50;85.90
22544;DHT22;11438;52.044;8.716;2022-10-16T15:07:12;21.50;86.40
22544;DHT22;11438;52.044;8.716;2022-10-16T15:09:38;21.40;86.30
22544;DHT22;11438;52.044;8.716;2022-10-16T15:12:03;21.50;86.70
22544;DHT22;11438;52.044;8.716;2022-10-16T15:14:29;21.40;86.80
22544;DHT22;11438;52.044;8.716;2022-10-16T15:16:55;21.40;87.10
22544;DHT22;11438;52.044;8.716;2022-10-16T15:19:20;21.40;87.20
22544;DHT22;11438;52.044;8.716;2022-10-16T15:21:46;21.40;87.90
22544;DHT22;11438;52.044;8.716;2022-10-16T15:24:13;21.40;87.50
22544;DHT22;11438;52.044;8.716;2022-10-16T15:26:39;21.40;87.70
22544;DHT22;11438;52.044;8.716;2022-10-16T15:29:05;21.40;87.80
22544;DHT22;11438;52.044;8.716;2022-10-16T15:31:31;21.40;87.80
22544;DHT22;11438;52.044;8.716;2022-10-16T15:33:56;21.40;87.80
22544;DHT22;11438;52.044;8.716;2022-10-16T15:36:31;21.40;88.00
22544;DHT22;11438;52.044;8.716;2022-10-16T15:38:59;21.40;88.00
22544;DHT22;11438;52.044;8.716;2022-10-16T15:41:24;21.40;88.00
22544;DHT22;11438;52.044;8.716;2022-10-16T15:43:50;21.40;88.10
22544;DHT22;11438;52.044;8.716;2022-10-16T15:46:21;21.30;88.50
22544;DHT22;11438;52.044;8.716;2022-10-16T15:48:48;21.30;88.90
22544;DHT22;11438;52.044;8.716;2022-10-16T15:51:14;21.30;88.90
22544;DHT22;11438;52.044;8.716;2022-10-16T15:53:40;21.30;88.90
22544;DHT22;11438;52.044;8.716;2022-10-16T15:56:07;21.20;89.00
22544;DHT22;11438;52.044;8.716;2022-10-16T15:58:33;21.20;89.00
22544;DHT22;11438;52.044;8.716;2022-10-16T16:01:00;21.10;89.20
22544;DHT22;11438;52.044;8.716;2022-10-16T16:03:27;21.10;89.20
22544;DHT22;11438;52.044;8.716;2022-10-16T16:05:54;21.00;89.20
22544;DHT22;11438;52.044;8.716;2022-10-16T16:08:20;20.90;89.20
22544;DHT22;11438;52.044;8.716;2022-10-16T16:10:45;20.90;89.60
22544;DHT22;11438;52.044;8.716;2022-10-16T16:13:21;20.80;89.70
22544;DHT22;11438;52.044;8.716;2022-10-16T16:15:47;20.70;89.80
22544;DHT22;11438;52.044;8.716;2022-10-16T16:18:13;20.60;90.00
22544;DHT22;11438;52.044;8.716;2022-10-16T16:20:38;20.60;90.10
22544;DHT22;11438;52.044;8.716;2022-10-16T16:23:04;20.60;90.20
22544;DHT22;11438;52.044;8.716;2022-10-16T16:25:29;20.50;90.20
22544;DHT22;11438;52.044;8.716;2022-10-16T16:27:55;20.50;90.30
22544;DHT22;11438;52.044;8.716;2022-10-16T16:30:20;20.50;90.30
22544;DHT22;11438;52.044;8.716;2022-10-16T16:32:46;20.40;90.30
22544;DHT22;11438;52.044;8.716;2022-10-16T16:35:11;20.40;90.40
22544;DHT22;11438;52.044;8.716;2022-10-16T16:37:37;20.40;90.40
22544;DHT22;11438;52.044;8.716;2022-10-16T16:40:03;20.30;90.40
22544;DHT22;11438;52.044;8.716;2022-10-16T16:42:29;20.30;90.50
22544;DHT22;11438;52.044;8.716;2022-10-16T16:44:54;20.30;90.50
22544;DHT22;11438;52.044;8.716;2022-10-16T16:47:20;20.30;90.60
22544;DHT22;11438;52.044;8.716;2022-10-16T16:49:46;20.20;90.70
22544;DHT22;11438;52.044;8.716;2022-10-16T16:52:12;20.20;90.80
22544;DHT22;11438;52.044;8.716;2022-10-16T16:54:38;20.20;90.80
22544;DHT22;11438;52.044;8.716;2022-10-16T16:57:04;20.20;90.80
22544;DHT22;11438;52.044;8.716;2022-10-16T16:59:30;20.10;90.90
22544;DHT22;11438;52.044;8.716;2022-10-16T17:01:58;20.10;90.90
22544;DHT22;11438;52.044;8.716;2022-10-16T17:04:24;20.10;91.00
22544;DHT22;11438;52.044;8.716;2022-10-16T17:06:50;20.10;91.10
22544;DHT22;11438;52.044;8.716;2022-10-16T17:09:17;20.00;91.20
22544;DHT22;11438;52.044;8.716;2022-10-16T17:11:42;20.00;91.20
22544;DHT22;11438;52.044;8.716;2022-10-16T17:14:10;20.00;91.30
22544;DHT22;11438;52.044;8.716;2022-10-16T17:16:37;20.00;91.30
22544;DHT22;11438;52.044;8.716;2022-10-16T17:19:06;20.00;91.40
22544;DHT22;11438;52.044;8.716;2022-10-16T17:21:32;19.90;91.40
22544;DHT22;11438;52.044;8.716;2022-10-16T17:23:58;20.00;91.40